Share

Glennallen, AK (99588)

AKDOT Glenn Highway @ MP 176.6 (MGHYA2) Elev 2112 ft | 62.11 °N, 145.85 °W | Change Station

Current weather conditions updated 58 minutes ago

Mostly Cloudy
Mostly Cloudy
49 °F
Feels Like 49 °F
N
3
Wind Variable Wind from SE
Gusts 14.0 mph
Sunrise 6:05 AM
Sunset 9:25 PM
Moon Waning Gibbous

Tomorrow is forecast to be Cooler than today.

Pressure 29.85 in
Visibility 10.0 miles
Clouds Mostly Cloudy 9500 ft
Windchill 49 °F
Dew Point 25 °F
Humidity 38%
Rainfall -999.00 in
Snow Depth Not available.
UV 1 out of 16
Pollen Not available.
Air Quality Not available.
Flu Activity Sporadic
METAR PAGK 210153Z AUTO 14011KT 10SM BKN095 09/M04 A2978 RMK AO2 SLP106 T00941044 TSNO

More Conditions Fewer Conditions

Pressure 29.85 in
Visibility 10.0 miles
Clouds Mostly Cloudy 9500 ft
Windchill 49 °F
Dew Point 25 °F
Humidity 38%
Rainfall -999.00 in
Snow Depth Not available.
UV 1 out of 16
Pollen Not available.
Air Quality Not available.
Flu Activity Sporadic
METAR PAGK 210153Z AUTO 14011KT 10SM BKN095 09/M04 A2978 RMK AO2 SLP106 T00941044 TSNO

More Conditions Fewer Conditions

10-Day Weather Forecast

Almanac

Astronomy

Apr. 20, 2014 Rise Set
Actual Time 6:05 AM AKDT 9:25 PM AKDT
Civil Twilight 5:12 AM AKDT 10:18 PM AKDT
Nautical Twilight 3:56 AM AKDT 11:36 PM AKDT
Astronomical Twilight 2:16 AM AKDT 1:11 AM AKDT
Moon 2:51 AM AKDT (4/20) 9:58 AM AKDT (4/20)
Length of Visible Light 17h 05m
Length of Day
15h 20m
Tomorrow will be 5m 55s longer.
Waning Gibbous, 64% of the Moon is Illuminated
Today
Waning Gibbous
Apr 22
Last Quarter
Apr 29
New
May 6
First Quarter
May 14
Full

Today's Extremes

State Highs State Lows

Community

  • Sun Pillar and Geese
    Sun Pillar and Geese
  • Easter Morning Fog
    Easter Morning Fog
  • Easter Dance
    Easter Dance
  • spring skiing mount Baker WA
    spring skiing mount Baker WA
  • Morning Sun
    Morning Sun

WunderPhotos

Upload Photos

1,703,518 photos uploaded!

WunderBlogs® & News

Nearby

Snow Depth

Station Depth Elevation
Upper Tsaina River 52 in 1750 ft
Moraine 70 in 2100 ft
Susitna Valley High 15 in 375 ft
Indian Pass 46 in 2300 ft
Turnagain Pass 54 in 1880 ft

Coastal Water Temperatures

Place Temperature
No Stations Reporting

Earthquake Activity

City Distance Mag. Time & Date
No recent earthquake activity has been reported nearby.
Minimum magnitude displayed is 2.5.

Nearby Weather Stations

Station Location Temp. Windchill Dew Point Humidity Wind Precip. Elev Updated Type
AKDOT Glenn Highway @ MP 176.6, Glennallen, AK 49 °F 49 °F 25 °F 38% SE  at  3 mph 0.00 in / hr 2112 ft 5:15 PM AKDT MADIS

Show More Stations Show Fewer Stations

What do you think?

We're not finished. Please let us know what you like, what you don't like, and what you are still missing.